createdAt,value
2023-01-27T00:01:46.083Z,99657.81
2023-01-27T00:04:15.133Z,99656.97
2023-01-27T00:06:43.897Z,99660.13
2023-01-27T00:09:14.283Z,99653.34
2023-01-27T00:11:51.982Z,99661.03
2023-01-27T00:14:20.964Z,99657.72
2023-01-27T00:16:49.642Z,99651.78
2023-01-27T00:19:20.010Z,99657.50
2023-01-27T00:21:58.895Z,99660.00
2023-01-27T00:24:38.983Z,99651.56
2023-01-27T00:27:10.239Z,99658.41
2023-01-27T00:29:41.693Z,99661.91
2023-01-27T00:32:21.935Z,99659.31
2023-01-27T00:34:52.062Z,99661.19
2023-01-27T00:37:21.000Z,99659.53
2023-01-27T00:39:51.289Z,99657.06
2023-01-27T00:42:19.992Z,99647.75
2023-01-27T00:45:02.562Z,99658.63
2023-01-27T00:47:31.421Z,99659.31
2023-01-27T00:50:00.184Z,99656.00
2023-01-27T00:52:29.008Z,99655.03
2023-01-27T00:54:59.203Z,99657.50
2023-01-27T00:57:28.428Z,99649.81
2023-01-27T00:59:59.710Z,99659.06
2023-01-27T01:02:28.692Z,99650.53
2023-01-27T01:04:57.434Z,99648.81
2023-01-27T01:07:26.221Z,99648.94
2023-01-27T01:09:55.116Z,99643.03
2023-01-27T01:12:25.442Z,99643.91
2023-01-27T01:14:54.281Z,99638.88
2023-01-27T01:17:23.924Z,99640.59
2023-01-27T01:19:52.875Z,99632.16
2023-01-27T01:22:21.549Z,99627.94
2023-01-27T01:24:50.286Z,99612.72
2023-01-27T01:27:18.942Z,99632.25
2023-01-27T01:29:49.172Z,99623.06
2023-01-27T01:32:17.985Z,99618.88
2023-01-27T01:34:46.696Z,99615.34
2023-01-27T01:37:18.424Z,99617.09
2023-01-27T01:39:47.221Z,99619.59
2023-01-27T01:42:15.920Z,99620.50
2023-01-27T01:44:46.628Z,99625.53
2023-01-27T01:47:18.933Z,99586.28
2023-01-27T01:49:49.169Z,99610.22
2023-01-27T01:52:23.013Z,99613.44
2023-01-27T01:54:56.925Z,99605.00
2023-01-27T01:57:32.762Z,99607.50
2023-01-27T02:00:07.225Z,99607.50
2023-01-27T02:02:50.328Z,99603.06
2023-01-27T02:05:24.605Z,99596.31
2023-01-27T02:07:59.482Z,99598.03
2023-01-27T02:10:28.425Z,99593.03
2023-01-27T02:12:57.393Z,99603.19
2023-01-27T02:15:26.525Z,99598.16
2023-01-27T02:17:56.661Z,99600.59
2023-01-27T02:20:32.595Z,99591.38
2023-01-27T02:23:09.458Z,99592.19
2023-01-27T02:25:48.870Z,99589.00
2023-01-27T02:28:17.866Z,99579.88
2023-01-27T02:30:46.983Z,99582.41
2023-01-27T02:33:17.084Z,99583.25
2023-01-27T02:35:53.123Z,99579.03
2023-01-27T02:38:23.665Z,99584.78
2023-01-27T02:40:59.215Z,99573.19
2023-01-27T02:43:28.294Z,99585.00
2023-01-27T02:45:57.018Z,99582.53
2023-01-27T02:48:26.994Z,99579.75
2023-01-27T02:50:55.841Z,99583.16
2023-01-27T02:53:24.623Z,99579.88
2023-01-27T02:55:54.793Z,99578.38
2023-01-27T02:58:24.073Z,99579.88
2023-01-27T03:01:00.901Z,99574.72
2023-01-27T03:03:29.873Z,99579.88
2023-01-27T03:05:58.634Z,99574.00
2023-01-27T03:08:27.791Z,99578.13
2023-01-27T03:10:58.103Z,99584.78
2023-01-27T03:13:28.262Z,99577.25
2023-01-27T03:16:12.066Z,99581.50
2023-01-27T03:18:47.607Z,99578.13
2023-01-27T03:21:17.984Z,99581.56
2023-01-27T03:23:49.245Z,99580.63
2023-01-27T03:26:24.344Z,99574.59
2023-01-27T03:29:11.623Z,99581.47
2023-01-27T03:31:45.862Z,99585.75
2023-01-27T03:34:15.781Z,99573.81
2023-01-27T03:37:03.123Z,99573.72
2023-01-27T03:39:41.926Z,99574.59
2023-01-27T03:42:21.908Z,99568.91
2023-01-27T03:45:02.144Z,99573.13
2023-01-27T03:47:30.965Z,99561.38
2023-01-27T03:49:59.635Z,99558.91
2023-01-27T03:52:28.408Z,99559.66
2023-01-27T03:54:57.113Z,99547.91
2023-01-27T03:57:27.386Z,99544.56
2023-01-27T03:59:56.120Z,99543.72
2023-01-27T04:02:33.880Z,99532.84
2023-01-27T04:05:12.742Z,99535.53
2023-01-27T04:07:41.752Z,99531.41
2023-01-27T04:10:11.898Z,99535.53
2023-01-27T04:12:41.246Z,99536.28
2023-01-27T04:15:10.887Z,99533.81
2023-01-27T04:17:42.181Z,99512.72
2023-01-27T04:20:12.543Z,99528.00
2023-01-27T04:22:41.267Z,99525.97
2023-01-27T04:25:13.384Z,99524.50
2023-01-27T04:27:43.823Z,99532.91
2023-01-27T04:30:13.612Z,99536.25
2023-01-27T04:32:42.380Z,99538.75
2023-01-27T04:35:11.670Z,99532.06
2023-01-27T04:37:40.750Z,99534.63
2023-01-27T04:40:11.244Z,99536.44
2023-01-27T04:42:40.056Z,99541.47
2023-01-27T04:45:11.801Z,99533.03
2023-01-27T04:47:41.119Z,99548.09
2023-01-27T04:50:11.629Z,99542.91
2023-01-27T04:52:40.433Z,99546.28
2023-01-27T04:55:10.168Z,99542.03
2023-01-27T04:57:39.063Z,99536.13
2023-01-27T05:00:13.033Z,99541.16
2023-01-27T05:02:41.839Z,99536.03
2023-01-27T05:05:11.757Z,99534.31
2023-01-27T05:07:40.956Z,99528.59
2023-01-27T05:10:10.847Z,99540.44
2023-01-27T05:12:39.589Z,99534.63
2023-01-27T05:15:11.213Z,99535.50
2023-01-27T05:17:40.204Z,99532.91
2023-01-27T05:20:09.632Z,99539.78
2023-01-27T05:22:38.663Z,99528.00
2023-01-27T05:25:08.141Z,99529.72
2023-01-27T05:27:37.714Z,99534.63
2023-01-27T05:30:07.434Z,99536.25
2023-01-27T05:32:37.626Z,99539.66
2023-01-27T05:35:07.419Z,99539.66
2023-01-27T05:37:36.063Z,99530.50
2023-01-27T05:40:05.334Z,99528.16
2023-01-27T05:42:34.012Z,99530.88
2023-01-27T05:45:02.775Z,99526.75
2023-01-27T05:47:31.791Z,99524.31
2023-01-27T05:50:02.650Z,99529.47
2023-01-27T05:52:31.447Z,99525.28
2023-01-27T05:55:00.183Z,99523.69
2023-01-27T05:57:28.890Z,99522.16
2023-01-27T05:59:57.555Z,99522.16
2023-01-27T06:02:26.333Z,99510.50
2023-01-27T06:04:55.206Z,99511.34
2023-01-27T06:07:25.436Z,99510.50
2023-01-27T06:09:54.175Z,99508.88
2023-01-27T06:12:22.874Z,99505.56
2023-01-27T06:14:51.634Z,99505.69
2023-01-27T06:17:20.564Z,99509.88
2023-01-27T06:19:49.324Z,99509.00
2023-01-27T06:22:18.049Z,99513.25
2023-01-27T06:24:48.149Z,99514.13
2023-01-27T06:27:16.964Z,99520.00
2023-01-27T06:29:45.635Z,99524.28
2023-01-27T06:32:14.341Z,99526.75
2023-01-27T06:34:43.640Z,99515.94
2023-01-27T06:37:12.423Z,99517.66
2023-01-27T06:39:41.188Z,99530.22
2023-01-27T06:42:11.401Z,99526.84
2023-01-27T06:44:40.175Z,99530.25
2023-01-27T06:47:08.936Z,99528.63
2023-01-27T06:49:37.895Z,99522.84
2023-01-27T06:52:06.607Z,99529.59
2023-01-27T06:54:35.415Z,99521.16
2023-01-27T06:57:04.153Z,99532.91
2023-01-27T06:59:34.344Z,99537.94
2023-01-27T07:02:03.234Z,99538.81
2023-01-27T07:04:31.962Z,99536.25
2023-01-27T07:07:00.634Z,99544.69
2023-01-27T07:09:30.742Z,99544.69
2023-01-27T07:12:01.147Z,99541.28
2023-01-27T07:14:29.786Z,99536.31
2023-01-27T07:17:00.148Z,99539.78
2023-01-27T07:19:29.083Z,99538.16
2023-01-27T07:21:57.811Z,99538.03
2023-01-27T07:24:26.648Z,99537.25
2023-01-27T07:26:55.528Z,99540.66
2023-01-27T07:29:24.220Z,99545.69
2023-01-27T07:31:53.122Z,99543.19
2023-01-27T07:34:23.342Z,99551.72
2023-01-27T07:36:53.186Z,99548.41
2023-01-27T07:39:22.015Z,99553.50
2023-01-27T07:41:51.120Z,99554.31
2023-01-27T07:44:21.715Z,99555.25
2023-01-27T07:46:51.002Z,99553.44
2023-01-27T07:49:19.718Z,99556.94
2023-01-27T07:51:49.794Z,99555.16
2023-01-27T07:54:19.317Z,99556.09
2023-01-27T07:56:48.027Z,99556.94
2023-01-27T07:59:16.882Z,99557.81
2023-01-27T08:01:47.912Z,99554.44
2023-01-27T08:04:20.347Z,99560.34
2023-01-27T08:06:50.885Z,99558.72
2023-01-27T08:09:19.855Z,99565.50
2023-01-27T08:11:48.486Z,99563.88
2023-01-27T08:14:17.217Z,99564.75
2023-01-27T08:16:45.935Z,99565.59
2023-01-27T08:19:14.900Z,99550.28
2023-01-27T08:21:43.951Z,99563.19
2023-01-27T08:24:14.398Z,99564.09
2023-01-27T08:26:43.124Z,99561.56
2023-01-27T08:29:11.898Z,99566.69
2023-01-27T08:31:42.055Z,99562.47
2023-01-27T08:34:10.922Z,99563.38
2023-01-27T08:36:43.725Z,99553.91
2023-01-27T08:39:13.967Z,99556.69
2023-01-27T08:41:43.353Z,99560.97
2023-01-27T08:44:11.964Z,99566.06
2023-01-27T08:46:40.933Z,99560.06
2023-01-27T08:49:09.664Z,99566.06
2023-01-27T08:51:38.502Z,99564.47
2023-01-27T08:54:07.341Z,99562.84
2023-01-27T08:56:37.856Z,99559.50
2023-01-27T08:59:06.766Z,99549.53
2023-01-27T09:01:35.795Z,99550.50
2023-01-27T09:04:05.273Z,99552.94
2023-01-27T09:06:33.919Z,99552.94
2023-01-27T09:09:12.588Z,99552.94
2023-01-27T09:11:44.757Z,99563.03
2023-01-27T09:14:13.995Z,99566.38
2023-01-27T09:16:42.715Z,99561.41
2023-01-27T09:19:11.761Z,99562.38
2023-01-27T09:21:40.677Z,99560.84
2023-01-27T09:24:09.737Z,99560.09
2023-01-27T09:26:38.385Z,99565.22
2023-01-27T09:29:08.629Z,99560.19
2023-01-27T09:31:38.106Z,99568.66
2023-01-27T09:34:06.915Z,99568.63
2023-01-27T09:36:42.841Z,99566.81
2023-01-27T09:39:13.437Z,99573.69
2023-01-27T09:42:06.575Z,99567.03
2023-01-27T09:45:04.846Z,99576.59
2023-01-27T09:47:58.579Z,99579.22
2023-01-27T09:50:41.124Z,99564.03
2023-01-27T09:53:31.507Z,99572.84
2023-01-27T09:56:06.882Z,99569.59
2023-01-27T09:58:50.488Z,99569.84
2023-01-27T10:01:30.208Z,99569.09
2023-01-27T10:04:16.404Z,99570.81
2023-01-27T10:07:03.270Z,99570.13
2023-01-27T10:09:51.852Z,99570.22
2023-01-27T10:12:35.751Z,99568.47
2023-01-27T10:15:18.215Z,99568.47
2023-01-27T10:17:58.842Z,99558.25
2023-01-27T10:20:35.614Z,99561.63
2023-01-27T10:23:18.859Z,99545.56
2023-01-27T10:26:00.446Z,99554.19
2023-01-27T10:28:32.190Z,99548.25
2023-01-27T10:31:02.964Z,99548.25
2023-01-27T12:01:01.791Z,99506.31
2023-01-27T12:03:45.213Z,99508.22
2023-01-27T12:06:18.003Z,99494.84
2023-01-27T12:08:49.957Z,99510.06
2023-01-27T12:11:24.629Z,99501.84
2023-01-27T12:13:56.102Z,99489.97
2023-01-27T12:16:37.107Z,99501.25
2023-01-27T12:19:16.479Z,99506.44
2023-01-27T12:21:49.786Z,99491.25
2023-01-27T12:24:28.873Z,99492.22
2023-01-27T12:26:59.571Z,99494.00
2023-01-27T12:29:33.931Z,99485.56
2023-01-27T12:32:04.223Z,99482.13
2023-01-27T12:34:37.239Z,99480.53
2023-01-27T12:37:09.180Z,99478.88
2023-01-27T12:39:43.563Z,99479.53
2023-01-27T12:42:33.872Z,99482.06
2023-01-27T12:45:02.631Z,99475.31
2023-01-27T12:47:32.830Z,99483.75
2023-01-27T12:50:22.659Z,99467.00
2023-01-27T12:53:04.488Z,99473.66
2023-01-27T12:55:35.472Z,99471.88
2023-01-27T12:58:05.552Z,99471.91
2023-01-27T13:00:36.121Z,99473.63
2023-01-27T13:03:13.451Z,99462.75
2023-01-27T13:05:46.022Z,99465.22
2023-01-27T13:08:19.145Z,99466.19
2023-01-27T13:10:52.899Z,99459.44
2023-01-27T13:13:26.671Z,99463.75
2023-01-27T13:15:59.277Z,99476.44
2023-01-27T13:18:35.158Z,99470.47
2023-01-27T13:21:14.731Z,99467.91
2023-01-27T13:23:43.241Z,99468.78
2023-01-27T13:26:18.643Z,99472.03
2023-01-27T13:28:53.720Z,99444.53
2023-01-27T13:31:34.915Z,99478.50
2023-01-27T13:34:13.255Z,99475.09
2023-01-27T13:36:45.714Z,99446.91
2023-01-27T13:39:20.667Z,99475.97
2023-01-27T13:41:57.318Z,99481.97
2023-01-27T13:44:31.990Z,99451.34
2023-01-27T13:47:05.347Z,99477.63
2023-01-27T13:49:42.655Z,99480.88
2023-01-27T13:52:13.309Z,99485.06
2023-01-27T13:54:42.052Z,99491.84
2023-01-27T13:57:35.450Z,99487.59
2023-01-27T14:00:12.830Z,99488.44
2023-01-27T14:03:07.964Z,99485.78
2023-01-27T14:05:51.220Z,99491.66
2023-01-27T14:08:46.599Z,99505.00
2023-01-27T14:11:24.411Z,99508.34
2023-01-27T14:14:14.917Z,99515.19
2023-01-27T14:16:57.476Z,99513.38
2023-01-27T14:19:35.628Z,99514.88
2023-01-27T14:22:16.148Z,99513.31
2023-01-27T14:24:53.924Z,99513.22
2023-01-27T14:27:30.887Z,99506.47
2023-01-27T14:30:08.307Z,99513.22
2023-01-27T14:32:41.242Z,99518.09
2023-01-27T14:35:33.518Z,99513.88
2023-01-27T14:38:13.369Z,99512.09
2023-01-27T14:40:54.941Z,99505.31
2023-01-27T14:43:37.251Z,99510.34
2023-01-27T14:46:12.396Z,99513.00
2023-01-27T14:48:52.190Z,99492.66
2023-01-27T14:51:29.538Z,99504.69
2023-01-27T14:54:23.009Z,99503.78
2023-01-27T14:57:09.598Z,99506.41
2023-01-27T14:59:46.364Z,99502.97
2023-01-27T15:02:41.087Z,99508.00
2023-01-27T15:05:15.816Z,99494.47
2023-01-27T15:07:53.306Z,99470.38
2023-01-27T15:10:26.711Z,99494.19
2023-01-27T15:13:15.871Z,99506.00
2023-01-27T15:16:11.650Z,99505.81
2023-01-27T15:19:05.191Z,99514.28
2023-01-27T15:22:00.208Z,99506.84
2023-01-27T15:24:52.481Z,99520.13
2023-01-27T15:27:23.329Z,99519.25
2023-01-27T15:29:53.025Z,99525.16
2023-01-27T15:32:28.880Z,99540.28
2023-01-27T15:35:23.641Z,99534.34
2023-01-27T15:38:01.865Z,99534.16
2023-01-27T15:40:30.752Z,99534.25
2023-01-27T15:43:06.664Z,99537.53
2023-01-27T15:45:38.442Z,99535.69
2023-01-27T15:48:14.539Z,99542.34
2023-01-27T15:50:48.895Z,99532.13
2023-01-27T15:53:25.600Z,99524.56
2023-01-27T15:55:57.520Z,99533.78
2023-01-27T15:58:35.845Z,99529.50
2023-01-27T16:01:09.051Z,99537.09
2023-01-27T16:03:44.113Z,99540.25
2023-01-27T16:06:17.095Z,99551.13
2023-01-27T16:08:52.433Z,99543.44
2023-01-27T16:11:39.822Z,99565.28
2023-01-27T16:14:30.492Z,99553.44
2023-01-27T16:17:18.089Z,99553.31
2023-01-27T16:19:54.545Z,99556.56
2023-01-27T16:22:24.111Z,99569.03
2023-01-27T16:24:56.651Z,99570.69
2023-01-27T16:27:39.647Z,99568.06
2023-01-27T16:30:17.445Z,99574.72
2023-01-27T16:33:06.806Z,99566.38
2023-01-27T16:35:45.774Z,99572.09
2023-01-27T16:38:23.865Z,99543.84
2023-01-27T16:40:56.781Z,99574.59
2023-01-27T16:43:31.778Z,99575.44
2023-01-27T16:46:03.202Z,99579.47
2023-01-27T16:48:40.621Z,99582.72
2023-01-27T16:51:16.684Z,99584.41
2023-01-27T16:53:49.283Z,99584.28
2023-01-27T16:56:22.797Z,99585.00
2023-01-27T16:58:52.403Z,99585.84
2023-01-27T17:01:23.983Z,99585.72
2023-01-27T17:04:04.845Z,99594.06
2023-01-27T17:06:37.018Z,99602.38
2023-01-27T17:09:25.042Z,99599.56
2023-01-27T17:11:56.021Z,99600.31
2023-01-27T17:14:32.187Z,99596.78
2023-01-27T17:17:03.889Z,99596.09
2023-01-27T17:19:36.223Z,99601.13
2023-01-27T17:22:10.260Z,99600.03
2023-01-27T17:24:44.555Z,99600.97
2023-01-27T17:27:23.248Z,99610.09
2023-01-27T17:29:56.940Z,99607.56
2023-01-27T17:32:29.377Z,99602.44
2023-01-27T17:35:01.694Z,99603.34
2023-01-27T17:37:32.746Z,99599.97
2023-01-27T17:40:03.745Z,99608.47
2023-01-27T17:42:35.414Z,99605.97
2023-01-27T17:45:23.987Z,99604.22
2023-01-27T17:47:52.952Z,99610.09
2023-01-27T17:50:26.196Z,99614.38
2023-01-27T17:52:57.321Z,99626.19
2023-01-27T17:55:27.885Z,99626.25
2023-01-27T17:58:06.710Z,99627.94
2023-01-27T18:00:40.510Z,99630.63
2023-01-27T18:03:15.965Z,99622.16
2023-01-27T18:05:47.629Z,99632.22
2023-01-27T18:08:16.379Z,99638.00
2023-01-27T18:10:45.365Z,99635.34
2023-01-27T18:13:35.022Z,99639.44
2023-01-27T18:16:04.552Z,99631.81
2023-01-27T18:18:35.683Z,99635.13
2023-01-27T18:21:15.571Z,99642.63
2023-01-27T18:23:46.701Z,99634.94
2023-01-27T18:26:20.195Z,99653.56
2023-01-27T18:28:53.546Z,99659.41
2023-01-27T18:31:25.799Z,99653.56
2023-01-27T18:34:03.067Z,99667.94
2023-01-27T18:36:36.054Z,99666.19
2023-01-27T18:39:26.048Z,99667.03
2023-01-27T18:41:55.091Z,99671.94
2023-01-27T18:44:27.345Z,99671.94
2023-01-27T18:47:02.521Z,99670.22
2023-01-27T18:49:31.343Z,99671.97
2023-01-27T18:52:01.610Z,99672.06
2023-01-27T18:54:30.357Z,99676.22
2023-01-27T18:56:59.162Z,99677.84
2023-01-27T18:59:28.009Z,99675.25
2023-01-27T19:01:56.988Z,99671.03
2023-01-27T19:04:26.108Z,99668.53
2023-01-27T19:06:54.807Z,99673.56
2023-01-27T19:09:25.056Z,99670.13
2023-01-27T19:11:57.149Z,99670.22
2023-01-27T19:14:26.189Z,99663.50
2023-01-27T19:16:54.887Z,99663.50
2023-01-27T19:19:25.045Z,99678.69
2023-01-27T19:21:53.806Z,99675.25
2023-01-27T19:24:22.564Z,99676.97
2023-01-27T19:26:52.840Z,99674.50
2023-01-27T19:29:22.450Z,99672.06
2023-01-27T19:31:51.229Z,99673.66
2023-01-27T19:34:20.057Z,99677.88
2023-01-27T19:36:48.667Z,99676.19
2023-01-27T19:39:20.152Z,99672.97
2023-01-27T19:41:49.074Z,99651.81
2023-01-27T19:44:19.127Z,99668.78
2023-01-27T19:46:47.888Z,99668.78
2023-01-27T19:49:17.977Z,99677.13
2023-01-27T19:51:47.116Z,99673.75
2023-01-27T19:54:17.409Z,99673.75
2023-01-27T19:56:46.739Z,99666.19
2023-01-27T19:59:15.449Z,99675.47
2023-01-27T20:01:45.676Z,99663.69
2023-01-27T20:04:14.518Z,99662.00
2023-01-27T20:06:43.297Z,99670.44
2023-01-27T20:09:12.457Z,99670.44
2023-01-27T20:11:42.554Z,99675.59
2023-01-27T20:14:14.036Z,99677.28
2023-01-27T20:16:43.716Z,99670.44
2023-01-27T20:19:16.191Z,99675.47
2023-01-27T20:21:46.119Z,99674.66
2023-01-27T20:24:17.586Z,99682.19
2023-01-27T20:26:46.405Z,99688.91
2023-01-27T20:29:15.378Z,99671.97
2023-01-27T20:31:44.264Z,99683.06
2023-01-27T20:34:14.481Z,99685.56
2023-01-27T20:36:43.319Z,99689.75
2023-01-27T20:39:12.617Z,99692.25
2023-01-27T20:41:41.380Z,99687.22
2023-01-27T20:44:13.479Z,99685.53
2023-01-27T20:46:42.211Z,99680.50
2023-01-27T20:49:11.045Z,99683.72
2023-01-27T20:51:41.275Z,99678.69
2023-01-27T20:54:10.092Z,99688.75
2023-01-27T20:56:39.254Z,99687.03
2023-01-27T20:59:08.058Z,99690.44
2023-01-27T21:01:37.269Z,99682.13
2023-01-27T21:04:06.123Z,99678.91
2023-01-27T21:06:35.133Z,99680.63
2023-01-27T21:09:05.449Z,99682.19
2023-01-27T21:11:34.231Z,99677.28
2023-01-27T21:14:02.964Z,99680.69
2023-01-27T21:16:31.738Z,99681.53
2023-01-27T21:19:00.583Z,99683.13
2023-01-27T21:21:32.384Z,99681.41
2023-01-27T21:24:01.527Z,99684.78
2023-01-27T21:26:33.172Z,99677.91
2023-01-27T21:29:02.055Z,99686.31
2023-01-27T21:31:31.218Z,99690.56
2023-01-27T21:34:01.141Z,99694.72
2023-01-27T21:36:30.247Z,99697.22
2023-01-27T21:38:58.940Z,99695.59
2023-01-27T21:41:38.931Z,99697.25
2023-01-27T21:44:26.811Z,99685.31
2023-01-27T21:46:56.174Z,99688.16
2023-01-27T21:49:25.136Z,99685.66
2023-01-27T21:51:55.079Z,99690.75
2023-01-27T21:54:23.847Z,99689.16
2023-01-27T21:56:52.564Z,99689.22
2023-01-27T21:59:23.020Z,99687.56
2023-01-27T22:01:55.518Z,99681.78
2023-01-27T22:04:24.445Z,99682.56
2023-01-27T22:06:53.225Z,99680.81
2023-01-27T22:09:22.007Z,99690.88
2023-01-27T22:11:50.711Z,99673.97
2023-01-27T22:14:19.678Z,99682.53
2023-01-27T22:16:51.606Z,99678.31
2023-01-27T22:19:20.545Z,99668.13
2023-01-27T22:21:49.252Z,99673.31
2023-01-27T22:24:18.489Z,99676.66
2023-01-27T22:26:47.267Z,99678.31
2023-01-27T22:29:16.596Z,99685.84
2023-01-27T22:31:45.319Z,99684.94
2023-01-27T22:34:16.166Z,99678.91
2023-01-27T22:36:45.020Z,99687.44
2023-01-27T22:39:13.738Z,99684.94
2023-01-27T22:41:42.529Z,99692.47
2023-01-27T22:44:13.353Z,99686.56
2023-01-27T22:46:43.471Z,99692.47
2023-01-27T22:49:11.926Z,99692.47
2023-01-27T22:51:42.616Z,99695.78
2023-01-27T22:54:11.789Z,99683.81
2023-01-27T22:56:40.571Z,99696.63
2023-01-27T22:59:09.272Z,99685.66
2023-01-27T23:01:38.507Z,99690.75
2023-01-27T23:04:07.440Z,99689.81
2023-01-27T23:06:36.292Z,99688.19
2023-01-27T23:09:06.530Z,99689.84
2023-01-27T23:11:35.432Z,99685.56
2023-01-27T23:14:04.189Z,99684.03
2023-01-27T23:16:33.702Z,99690.75
2023-01-27T23:19:02.765Z,99691.50
2023-01-27T23:21:31.909Z,99688.94
2023-01-27T23:24:00.686Z,99691.47
2023-01-27T23:26:30.929Z,99685.53
2023-01-27T23:28:59.863Z,99688.94
2023-01-27T23:31:28.735Z,99678.91
2023-01-27T23:33:57.672Z,99681.28
2023-01-27T23:36:26.603Z,99677.88
2023-01-27T23:38:55.383Z,99677.72
2023-01-27T23:41:24.412Z,99687.78
2023-01-27T23:43:56.647Z,99685.31
2023-01-27T23:46:26.014Z,99676.84
2023-01-27T23:48:56.226Z,99683.34
2023-01-27T23:51:25.111Z,99681.63
2023-01-27T23:53:54.872Z,99682.38
2023-01-27T23:56:23.744Z,99686.56
2023-01-27T23:58:52.555Z,99680.56
